Impacts TAF Board INFO
FOR SITUATIONAL AWARENESS. NOT TO BE USED FOR FLIGHT PLANNING PURPOSES.
IDs:

KISP - Islip/Macarthur Arpt, NY, US

Issued at 2041 UTC 22 Jun 2018
Updated at 2254 UTC 22 Jun 2018
Potential Impact None Slight Moderate High
Time<<23/11Z 23/12Z 23/13Z 23/14Z 23/15Z 23/16Z 23/17Z 23/18Z 23/19Z 23/20Z 23/21Z 23/22Z 23/23Z>>
Type PRVL PRVL PRVL PRVL PRVL PRVL PRVL
VIS >6 4 4 4 4 4 4
CIG 15 8 8 8 8 8 8
Cover OVC OVC OVC OVC OVC OVC OVC
FltCat MVFR IFR IFR IFR IFR IFR IFR
WX -SHRA -SHRA -SHRA -SHRA -SHRA -SHRA -SHRA
WDir 80 80 80 80 80 80 80
WSpd 11 9 9 9 9 9 9
WGst -- -- -- -- -- -- --

Raw TAF
KISP 222041Z 2221/2318 11010KT P6SM FEW025 BKN120
  FM230000 10008KT P6SM SCT015 BKN120
  FM230300 08009KT P6SM SCT025 BKN120
  FM230600 09010KT P6SM -SHRA SCT025 OVC070
  FM230900 08011KT P6SM -SHRA OVC015
  FM231200 08009KT 4SM -SHRA OVC008


METAR Board
Radar Display
Forecast Discussion

FOR SITUATIONAL AWARENESS. NOT TO BE USED FOR FLIGHT PLANNING PURPOSES.